Time;durP1;ratioP1;P1;durP2;ratioP2;P2;SDS_P1;SDS_P2;PMS_P1;PMS_P2;Temp;Humidity;BMP_temperature;BMP_pressure;BME280_temperature;BME280_humidity;BME280_pressure;Samples;Min_cycle;Max_cycle;Signal;HPM_P1;HPM_P2
2021/07/21 00:00:55;;;;;;;11.70;8.63;;;;;;;-145.12;100.00;63763.75;344520;28;136488;-70
2021/07/21 00:02:07;;;;;;;14.27;8.85;;;;;;;-145.12;100.00;63763.75;343352;28;137340;-70
2021/07/21 00:03:19;;;;;;;16.45;9.18;;;;;;;-145.12;100.00;63763.75;343301;28;136292;-70
2021/07/21 00:04:30;;;;;;;14.90;8.90;;;;;;;-145.12;100.00;63763.75;345483;28;138423;-70
2021/07/21 00:05:41;;;;;;;13.00;9.25;;;;;;;-145.12;100.00;63763.75;343315;28;137297;-70
2021/07/21 00:06:52;;;;;;;16.45;9.65;;;;;;;-145.12;100.00;63763.75;344659;28;137281;-69
2021/07/21 00:08:04;;;;;;;16.55;9.50;;;;;;;-145.12;100.00;63763.75;343783;28;159362;-67
2021/07/21 00:09:15;;;;;;;13.48;9.43;;;;;;;-145.12;100.00;63763.75;345995;28;137381;-68
2021/07/21 00:10:27;;;;;;;15.07;9.18;;;;;;;-145.12;100.00;63763.75;344089;28;137204;-67
2021/07/21 00:13:28;;;;;;;13.30;8.82;;;;;;;-145.12;100.00;63763.75;344571;28;137181;-67
2021/07/21 00:14:39;;;;;;;12.95;9.45;;;;;;;-145.12;100.00;63763.75;343017;28;138376;-69
2021/07/21 00:17:17;;;;;;;14.10;9.18;;;;;;;-145.12;100.00;63763.75;343625;28;159464;-70
2021/07/21 00:18:47;;;;;;;15.00;9.07;;;;;;;-145.12;100.00;63763.75;344328;28;138299;-70
2021/07/21 00:20:08;;;;;;;15.93;9.70;;;;;;;-145.12;100.00;63763.75;344653;28;136963;-67
2021/07/21 00:21:21;;;;;;;16.23;9.68;;;;;;;-145.12;100.00;63763.75;343892;28;138345;-67
2021/07/21 00:22:43;;;;;;;15.63;8.70;;;;;;;-145.12;100.00;63763.75;343098;28;138261;-67
2021/07/21 00:23:55;;;;;;;16.17;9.55;;;;;;;-145.12;100.00;63763.75;343181;28;137636;-67
2021/07/21 00:25:08;;;;;;;12.88;9.38;;;;;;;-145.12;100.00;63763.75;343348;28;136213;-68
2021/07/21 00:26:19;;;;;;;12.60;8.68;;;;;;;-145.12;100.00;63763.75;344640;28;137078;-67
2021/07/21 00:27:30;;;;;;;13.95;9.52;;;;;;;-145.12;100.00;63763.75;344587;28;137377;-68
2021/07/21 00:28:43;;;;;;;11.80;9.02;;;;;;;-145.12;100.00;63763.75;344577;28;137956;-67
2021/07/21 00:29:54;;;;;;;13.15;9.02;;;;;;;-145.12;100.00;63763.75;343219;28;138284;-66
2021/07/21 00:31:07;;;;;;;12.15;8.52;;;;;;;-145.12;100.00;63763.75;342432;28;160172;-67
2021/07/21 00:32:18;;;;;;;13.18;9.05;;;;;;;-145.12;100.00;63763.75;343010;28;138419;-66
2021/07/21 00:33:29;;;;;;;11.38;8.65;;;;;;;-145.12;100.00;63763.75;342441;28;160956;-66
2021/07/21 00:34:42;;;;;;;13.35;9.07;;;;;;;-145.12;100.00;63763.75;343287;28;137334;-67
2021/07/21 00:35:53;;;;;;;12.35;9.30;;;;;;;-145.12;100.00;63763.75;343251;28;136518;-66
2021/07/21 00:37:06;;;;;;;12.82;9.15;;;;;;;-145.12;100.00;63763.75;343155;28;137798;-66
2021/07/21 00:38:17;;;;;;;12.25;9.05;;;;;;;-145.12;100.00;63763.75;342457;28;160946;-67
2021/07/21 00:39:28;;;;;;;13.60;8.98;;;;;;;-145.12;100.00;63763.75;342979;28;138713;-66
2021/07/21 00:40:40;;;;;;;14.13;10.07;;;;;;;-145.12;100.00;63763.75;342319;28;160813;-69
2021/07/21 00:41:51;;;;;;;13.88;9.52;;;;;;;-145.12;100.00;63763.75;343129;28;137136;-68
2021/07/21 00:43:02;;;;;;;13.38;9.52;;;;;;;-145.12;100.00;63763.75;343167;28;137134;-66
2021/07/21 00:44:13;;;;;;;13.60;9.50;;;;;;;-145.12;100.00;63763.75;343228;28;137368;-67
2021/07/21 00:45:25;;;;;;;12.13;9.50;;;;;;;-145.12;100.00;63763.75;343154;28;138387;-65
2021/07/21 00:46:36;;;;;;;14.40;9.45;;;;;;;-145.12;100.00;63763.75;343198;28;137255;-67
2021/07/21 00:47:47;;;;;;;15.38;9.57;;;;;;;-145.12;100.00;63763.75;343184;28;138484;-66
2021/07/21 00:48:58;;;;;;;13.70;9.32;;;;;;;-145.12;100.00;63763.75;343286;28;138326;-66
2021/07/21 00:50:09;;;;;;;15.27;10.00;;;;;;;-145.12;100.00;63763.75;343050;28;138045;-67
2021/07/21 00:51:21;;;;;;;12.63;9.23;;;;;;;-145.12;100.00;63763.75;342473;28;160608;-69
2021/07/21 00:52:34;;;;;;;16.27;10.23;;;;;;;-145.12;100.00;63763.75;343208;28;137270;-68
2021/07/21 00:53:47;;;;;;;13.90;9.90;;;;;;;-145.12;100.00;63763.75;343153;28;137408;-68
2021/07/21 00:54:59;;;;;;;12.82;9.70;;;;;;;-145.12;100.00;63763.75;343066;28;138532;-67
2021/07/21 00:56:12;;;;;;;14.07;9.88;;;;;;;-145.12;100.00;63763.75;343246;28;137825;-66
2021/07/21 00:57:24;;;;;;;17.63;10.13;;;;;;;-145.12;100.00;63763.75;341860;28;138344;-68
2021/07/21 00:58:36;;;;;;;15.05;9.80;;;;;;;-145.12;100.00;63763.75;340898;28;161320;-68
2021/07/21 00:59:48;;;;;;;14.85;10.02;;;;;;;-145.12;100.00;63763.75;341652;28;137183;-68
2021/07/21 01:00:59;;;;;;;14.52;9.77;;;;;;;-145.12;100.00;63763.75;340431;28;138761;-68
2021/07/21 01:02:10;;;;;;;14.43;9.82;;;;;;;-145.12;100.00;63763.75;340296;28;138245;-67
2021/07/21 01:03:23;;;;;;;16.67;10.57;;;;;;;-145.12;100.00;63763.75;341940;28;138308;-66
2021/07/21 01:04:37;;;;;;;15.13;10.05;;;;;;;-145.12;100.00;63763.75;341889;28;137762;-66
2021/07/21 01:05:48;;;;;;;15.77;10.07;;;;;;;-145.12;100.00;63763.75;341170;28;159310;-67
2021/07/21 01:07:00;;;;;;;16.55;10.68;;;;;;;-145.12;100.00;63763.75;341827;28;137978;-68
2021/07/21 01:08:12;;;;;;;16.98;10.77;;;;;;;-145.12;100.00;63763.75;341816;28;136518;-68
2021/07/21 01:09:26;;;;;;;13.82;10.07;;;;;;;-145.12;100.00;63763.75;341241;28;161390;-68
2021/07/21 01:10:43;;;;;;;16.83;10.48;;;;;;;-145.12;100.00;63763.75;341011;28;161349;-68
2021/07/21 01:12:03;;;;;;;14.07;10.18;;;;;;;-145.12;100.00;63763.75;341847;28;137238;-67
2021/07/21 01:13:21;;;;;;;14.98;10.05;;;;;;;-145.12;100.00;63763.75;344463;28;138542;-68
2021/07/21 01:14:49;;;;;;;14.52;10.40;;;;;;;-145.12;100.00;63763.75;344568;28;136596;-69
2021/07/21 01:16:32;;;;;;;15.98;9.88;;;;;;;-145.12;100.00;63763.75;344651;28;137009;-68
2021/07/21 01:18:01;;;;;;;16.55;9.95;;;;;;;-145.12;100.00;63763.75;337749;28;137028;-67
2021/07/21 01:19:35;;;;;;;15.95;9.85;;;;;;;-145.12;100.00;63763.75;336985;28;138412;-66
2021/07/21 01:21:01;;;;;;;15.32;10.13;;;;;;;-145.12;100.00;63763.75;336356;29;137817;-68
2021/07/21 01:22:25;;;;;;;15.68;9.82;;;;;;;-145.12;100.00;63763.75;336311;29;138433;-67
2021/07/21 01:23:48;;;;;;;14.30;9.60;;;;;;;-145.12;100.00;63763.75;336375;29;138284;-67
2021/07/21 01:25:11;;;;;;;14.75;10.00;;;;;;;-145.12;100.00;63763.75;336464;29;137108;-67
2021/07/21 01:26:30;;;;;;;14.15;9.95;;;;;;;-145.12;100.00;63763.75;336489;29;137964;-67
2021/07/21 01:27:47;;;;;;;14.57;10.32;;;;;;;-145.12;100.00;63763.75;336305;29;138183;-67
2021/07/21 01:29:00;;;;;;;16.25;10.40;;;;;;;-145.12;100.00;63763.75;335675;29;161380;-67
2021/07/21 01:30:16;;;;;;;15.55;10.18;;;;;;;-145.12;100.00;63763.75;336384;29;136507;-68
2021/07/21 01:31:34;;;;;;;16.05;9.80;;;;;;;-145.12;100.00;63763.75;336326;29;138268;-68
2021/07/21 01:32:49;;;;;;;15.18;10.05;;;;;;;-145.12;100.00;63763.75;336255;29;137299;-66
2021/07/21 01:34:04;;;;;;;14.88;10.13;;;;;;;-145.12;100.00;63763.75;336290;28;137005;-67
2021/07/21 01:35:20;;;;;;;13.15;10.35;;;;;;;-145.12;100.00;63763.75;336398;29;138359;-66
2021/07/21 01:36:37;;;;;;;14.65;9.90;;;;;;;-145.12;100.00;63763.75;336389;29;138244;-67
2021/07/21 01:37:56;;;;;;;13.75;9.88;;;;;;;-145.12;100.00;63763.75;336342;29;138023;-67
2021/07/21 01:39:33;;;;;;;14.90;9.80;;;;;;;-145.12;100.00;63763.75;336403;29;137049;-67
2021/07/21 01:40:48;;;;;;;15.10;9.60;;;;;;;-145.12;100.00;63763.75;336437;29;138664;-68
2021/07/21 01:42:06;;;;;;;15.20;10.13;;;;;;;-145.12;100.00;63763.75;336583;29;138260;-67
2021/07/21 01:43:21;;;;;;;15.00;10.30;;;;;;;-145.12;100.00;63763.75;336577;29;137211;-68
2021/07/21 01:44:36;;;;;;;15.00;9.88;;;;;;;-145.12;100.00;63763.75;338040;28;137203;-67
2021/07/21 01:45:50;;;;;;;16.33;9.80;;;;;;;-145.12;100.00;63763.75;338069;28;137841;-67
2021/07/21 01:47:03;;;;;;;14.27;9.57;;;;;;;-145.12;100.00;63763.75;337776;28;137214;-67
2021/07/21 01:48:16;;;;;;;14.02;10.05;;;;;;;-145.12;100.00;63763.75;337845;28;138316;-68
2021/07/21 01:49:31;;;;;;;15.88;10.43;;;;;;;-145.12;100.00;63763.75;337915;28;137138;-67
2021/07/21 01:50:43;;;;;;;14.35;9.88;;;;;;;-145.12;100.00;63763.75;337852;28;136999;-67
2021/07/21 01:51:57;;;;;;;13.65;9.98;;;;;;;-145.12;100.00;63763.75;335512;29;137051;-67
2021/07/21 01:53:10;;;;;;;15.45;10.45;;;;;;;-145.12;100.00;63763.75;335282;29;138334;-67
2021/07/21 01:54:22;;;;;;;14.52;10.57;;;;;;;-145.12;100.00;63763.75;335238;29;137753;-68
2021/07/21 01:55:33;;;;;;;15.48;10.45;;;;;;;-145.12;100.00;63763.75;342019;28;137080;-67
2021/07/21 01:56:46;;;;;;;14.93;10.30;;;;;;;-145.12;100.00;63763.75;341971;28;137160;-67
2021/07/21 01:57:59;;;;;;;17.60;10.35;;;;;;;-145.12;100.00;63763.75;343475;28;137932;-67
2021/07/21 01:59:11;;;;;;;14.30;10.05;;;;;;;-145.12;100.00;63763.75;343392;28;138340;-67
2021/07/21 02:00:23;;;;;;;14.60;9.80;;;;;;;-145.12;100.00;63763.75;343438;28;137133;-68
2021/07/21 02:01:37;;;;;;;14.48;9.90;;;;;;;-145.12;100.00;63763.75;343381;28;138323;-67
2021/07/21 02:02:50;;;;;;;14.65;10.18;;;;;;;-145.12;100.00;63763.75;343378;28;137413;-67
2021/07/21 02:04:03;;;;;;;13.18;9.98;;;;;;;-145.12;100.00;63763.75;343454;28;137094;-67
2021/07/21 02:05:14;;;;;;;15.23;10.00;;;;;;;-145.12;100.00;63763.75;342050;28;137066;-67
2021/07/21 02:06:27;;;;;;;15.88;10.07;;;;;;;-145.12;100.00;63763.75;342029;28;137730;-68
2021/07/21 02:07:40;;;;;;;14.27;10.18;;;;;;;-145.12;100.00;63763.75;343491;28;137147;-68
2021/07/21 02:08:55;;;;;;;15.30;10.57;;;;;;;-145.12;100.00;63763.75;343389;28;138213;-67
2021/07/21 02:10:10;;;;;;;14.63;10.18;;;;;;;-145.12;100.00;63763.75;343304;28;137439;-67
2021/07/21 02:11:24;;;;;;;17.92;10.25;;;;;;;-145.12;100.00;63763.75;343487;28;137180;-67
2021/07/21 02:12:37;;;;;;;14.73;10.05;;;;;;;-145.12;100.00;63763.75;343283;28;137290;-67
2021/07/21 02:13:58;;;;;;;14.35;10.13;;;;;;;-145.12;100.00;63763.75;343375;28;137308;-68
2021/07/21 02:15:10;;;;;;;17.52;10.52;;;;;;;-145.12;100.00;63763.75;343476;28;138011;-67
2021/07/21 02:16:22;;;;;;;14.88;10.05;;;;;;;-145.12;100.00;63763.75;343461;28;137030;-68
2021/07/21 02:17:37;;;;;;;14.50;9.93;;;;;;;-145.12;100.00;63763.75;343412;28;136484;-67
2021/07/21 02:18:50;;;;;;;15.27;10.35;;;;;;;-145.12;100.00;63763.75;343415;28;137255;-68
2021/07/21 02:20:05;;;;;;;15.32;10.20;;;;;;;-145.12;100.00;63763.75;343376;28;136502;-67
2021/07/21 02:21:17;;;;;;;15.30;10.23;;;;;;;-145.12;100.00;63763.75;343562;28;137367;-67
2021/07/21 02:22:29;;;;;;;15.15;10.30;;;;;;;-145.12;100.00;63763.75;343374;28;138416;-68
2021/07/21 02:23:41;;;;;;;14.48;10.57;;;;;;;-145.12;100.00;63763.75;343905;28;137845;-67
2021/07/21 02:24:53;;;;;;;15.23;10.50;;;;;;;-145.12;100.00;63763.75;342591;28;161099;-67
2021/07/21 02:26:06;;;;;;;15.55;10.75;;;;;;;-145.12;100.00;63763.75;343408;28;137123;-67
2021/07/21 02:27:18;;;;;;;15.00;10.23;;;;;;;-145.12;100.00;63763.75;343234;28;137063;-67
2021/07/21 02:28:29;;;;;;;15.80;10.65;;;;;;;-145.12;100.00;63763.75;343435;28;137840;-67
2021/07/21 02:29:41;;;;;;;15.45;10.77;;;;;;;-145.12;100.00;63763.75;343259;28;137116;-67
2021/07/21 02:30:53;;;;;;;15.18;11.27;;;;;;;-145.12;100.00;63763.75;343220;28;138580;-68
2021/07/21 02:32:13;;;;;;;15.73;11.32;;;;;;;-145.12;100.00;63763.75;343368;28;137810;-67
2021/07/21 02:33:30;;;;;;;14.38;10.57;;;;;;;-145.12;100.00;63763.75;343365;28;138367;-68
2021/07/21 02:34:45;;;;;;;14.32;10.43;;;;;;;-145.12;100.00;63763.75;343216;28;137137;-67
2021/07/21 02:35:56;;;;;;;14.98;10.60;;;;;;;-145.12;100.00;63763.75;343231;28;138314;-67
2021/07/21 02:37:08;;;;;;;13.60;10.07;;;;;;;-145.12;100.00;63763.75;343288;28;138150;-68
2021/07/21 02:38:20;;;;;;;15.90;10.63;;;;;;;-145.12;100.00;63763.75;342469;28;161248;-67
2021/07/21 02:39:31;;;;;;;15.32;10.40;;;;;;;-145.12;100.00;63763.75;342496;28;161009;-67
2021/07/21 02:40:43;;;;;;;14.35;10.52;;;;;;;-145.12;100.00;63763.75;343387;28;137113;-67
2021/07/21 02:41:55;;;;;;;15.95;10.93;;;;;;;-145.12;100.00;63763.75;343310;28;138125;-67
2021/07/21 02:43:06;;;;;;;16.15;11.20;;;;;;;-145.12;100.00;63763.75;342485;28;159107;-67
2021/07/21 02:44:20;;;;;;;18.15;11.43;;;;;;;-145.12;100.00;63763.75;343245;28;138064;-67
2021/07/21 02:45:31;;;;;;;16.58;10.90;;;;;;;-145.12;100.00;63763.75;343179;28;137972;-67
2021/07/21 02:46:42;;;;;;;14.25;11.00;;;;;;;-145.12;100.00;63763.75;343308;28;137300;-67
2021/07/21 02:47:53;;;;;;;16.63;11.10;;;;;;;-145.12;100.00;63763.75;343344;28;137227;-67
2021/07/21 02:49:05;;;;;;;16.33;11.27;;;;;;;-145.12;100.00;63763.75;343413;28;137075;-67
2021/07/21 02:50:20;;;;;;;16.56;11.10;;;;;;;-145.12;100.00;63763.75;342621;28;159978;-67
2021/07/21 02:51:35;;;;;;;16.65;10.60;;;;;;;-145.12;100.00;63763.75;343309;28;136988;-67
2021/07/21 02:53:25;;;;;;;19.13;11.20;;;;;;;-145.12;100.00;63763.75;343223;28;137053;-66
2021/07/21 02:54:45;;;;;;;14.85;11.05;;;;;;;-145.12;100.00;63763.75;340508;28;136535;-67
2021/07/21 02:56:10;;;;;;;13.40;10.60;;;;;;;-145.12;100.00;63763.75;339690;28;160496;-67
2021/07/21 02:57:26;;;;;;;14.30;10.48;;;;;;;-145.12;100.00;63763.75;340335;28;138398;-67
2021/07/21 02:58:44;;;;;;;16.60;11.30;;;;;;;-145.12;100.00;63763.75;340156;28;137272;-67
2021/07/21 03:00:01;;;;;;;16.73;11.18;;;;;;;-145.12;100.00;63763.75;340383;28;137922;-67
2021/07/21 03:01:17;;;;;;;15.75;11.10;;;;;;;-145.12;100.00;63763.75;339778;28;160303;-67
2021/07/21 03:02:32;;;;;;;15.60;11.20;;;;;;;-145.12;100.00;63763.75;340584;28;136490;-67
2021/07/21 03:03:46;;;;;;;15.20;11.13;;;;;;;-145.12;100.00;63763.75;340443;28;137180;-66
2021/07/21 03:04:59;;;;;;;16.88;11.48;;;;;;;-145.12;100.00;63763.75;340456;28;137037;-67
2021/07/21 03:06:12;;;;;;;15.65;10.68;;;;;;;-145.12;100.00;63763.75;340190;28;137043;-67
2021/07/21 03:07:25;;;;;;;16.02;11.13;;;;;;;-145.12;100.00;63763.75;339625;28;160028;-67
2021/07/21 03:08:38;;;;;;;17.42;11.40;;;;;;;-145.12;100.00;63763.75;339226;28;136446;-67
2021/07/21 03:09:52;;;;;;;14.77;11.15;;;;;;;-145.12;100.00;63763.75;339116;28;137129;-66
2021/07/21 03:11:05;;;;;;;15.30;10.82;;;;;;;-145.12;100.00;63763.75;339053;28;137235;-67
2021/07/21 03:12:19;;;;;;;15.05;11.35;;;;;;;-145.12;100.00;63763.75;339118;28;138382;-67
2021/07/21 03:13:41;;;;;;;17.83;12.00;;;;;;;-145.12;100.00;63763.75;339233;28;137338;-67
2021/07/21 03:14:56;;;;;;;16.90;11.25;;;;;;;-145.12;100.00;63763.75;339102;28;138122;-67
2021/07/21 03:16:10;;;;;;;15.60;11.68;;;;;;;-145.12;100.00;63763.75;339215;28;137314;-67
2021/07/21 03:17:24;;;;;;;16.30;11.80;;;;;;;-145.12;100.00;63763.75;340375;28;138231;-67
2021/07/21 03:18:36;;;;;;;16.65;11.82;;;;;;;-145.12;100.00;63763.75;340373;28;138274;-67
2021/07/21 03:19:52;;;;;;;17.13;11.90;;;;;;;-145.12;100.00;63763.75;340487;28;138283;-67
2021/07/21 03:21:05;;;;;;;17.40;11.68;;;;;;;-145.12;100.00;63763.75;339747;28;159930;-67
2021/07/21 03:22:20;;;;;;;17.30;11.85;;;;;;;-145.12;100.00;63763.75;340463;28;138159;-67
2021/07/21 03:23:33;;;;;;;16.98;11.65;;;;;;;-145.12;100.00;63763.75;340392;28;138480;-67
2021/07/21 03:24:45;;;;;;;16.45;11.90;;;;;;;-145.12;100.00;63763.75;340497;28;137002;-67
2021/07/21 03:26:00;;;;;;;16.20;11.55;;;;;;;-145.12;100.00;63763.75;340326;28;137091;-67
2021/07/21 03:27:13;;;;;;;17.25;11.48;;;;;;;-145.12;100.00;63763.75;340366;28;137265;-67
2021/07/21 03:28:25;;;;;;;17.02;11.82;;;;;;;-145.12;100.00;63763.75;340501;28;137136;-66
2021/07/21 03:29:37;;;;;;;15.95;11.90;;;;;;;-145.12;100.00;63763.75;340461;28;137203;-67
2021/07/21 03:30:52;;;;;;;14.98;11.77;;;;;;;-145.12;100.00;63763.75;341952;28;137678;-67
2021/07/21 03:32:05;;;;;;;16.27;11.45;;;;;;;-145.12;100.00;63763.75;341191;28;160713;-66
2021/07/21 03:33:23;;;;;;;18.48;11.68;;;;;;;-145.12;100.00;63763.75;341940;28;137229;-66
2021/07/21 03:34:36;;;;;;;17.20;11.57;;;;;;;-145.12;100.00;63763.75;341256;28;160158;-68
2021/07/21 03:35:48;;;;;;;16.05;11.68;;;;;;;-145.12;100.00;63763.75;341900;28;137167;-68
2021/07/21 03:37:01;;;;;;;18.73;12.85;;;;;;;-145.12;100.00;63763.75;341842;28;138299;-67
2021/07/21 03:38:16;;;;;;;18.45;12.60;;;;;;;-145.12;100.00;63763.75;343968;28;137710;-68
2021/07/21 03:39:28;;;;;;;18.33;12.60;;;;;;;-145.12;100.00;63763.75;343176;28;137142;-67
2021/07/21 03:40:40;;;;;;;17.52;11.65;;;;;;;-145.12;100.00;63763.75;343360;28;138369;-67
2021/07/21 03:41:53;;;;;;;16.58;11.95;;;;;;;-145.12;100.00;63763.75;342507;28;160570;-67
2021/07/21 03:43:04;;;;;;;18.27;12.02;;;;;;;-145.12;100.00;63763.75;343208;28;136511;-68
2021/07/21 03:44:19;;;;;;;16.70;11.30;;;;;;;-145.12;100.00;63763.75;343243;28;138438;-68
2021/07/21 03:45:33;;;;;;;17.23;11.68;;;;;;;-145.12;100.00;63763.75;343334;28;136547;-67
2021/07/21 03:46:45;;;;;;;17.65;12.48;;;;;;;-145.12;100.00;63763.75;343342;28;138263;-67
2021/07/21 03:47:56;;;;;;;16.50;11.60;;;;;;;-145.12;100.00;63763.75;343415;28;137005;-67
2021/07/21 03:49:08;;;;;;;18.08;11.77;;;;;;;-145.12;100.00;63763.75;344578;28;138477;-67
2021/07/21 03:50:21;;;;;;;16.42;11.55;;;;;;;-145.12;100.00;63763.75;344616;28;137002;-68
2021/07/21 03:51:37;;;;;;;16.95;11.75;;;;;;;-145.12;100.00;63763.75;344629;28;138672;-68
2021/07/21 03:52:48;;;;;;;17.90;12.80;;;;;;;-145.12;100.00;63763.75;344472;28;138338;-68
2021/07/21 03:54:01;;;;;;;16.27;11.88;;;;;;;-145.12;100.00;63763.75;344492;28;136510;-68
2021/07/21 03:55:15;;;;;;;19.15;11.88;;;;;;;-145.12;100.00;63763.75;344554;28;137112;-65
2021/07/21 03:56:27;;;;;;;18.13;12.30;;;;;;;-145.12;100.00;63763.75;345929;28;138090;-67
2021/07/21 03:57:42;;;;;;;17.48;12.07;;;;;;;-145.12;100.00;63763.75;345785;28;138230;-67
2021/07/21 03:58:53;;;;;;;17.77;11.43;;;;;;;-145.12;100.00;63763.75;345379;28;137756;-68
2021/07/21 04:00:12;;;;;;;19.17;12.35;;;;;;;-145.12;100.00;63763.75;345947;28;137719;-67
2021/07/21 04:01:24;;;;;;;19.00;12.63;;;;;;;-145.12;100.00;63763.75;345782;28;137332;-68
2021/07/21 04:02:37;;;;;;;17.67;12.00;;;;;;;-145.12;100.00;63763.75;345993;28;137376;-67
2021/07/21 04:03:51;;;;;;;17.80;11.95;;;;;;;-145.12;100.00;63763.75;345653;28;138270;-67
2021/07/21 04:05:04;;;;;;;18.73;12.27;;;;;;;-145.12;100.00;63763.75;345944;28;137831;-68
2021/07/21 04:06:17;;;;;;;20.33;12.38;;;;;;;-145.12;100.00;63763.75;345843;28;138507;-67
2021/07/21 04:07:34;;;;;;;17.85;11.98;;;;;;;-145.12;100.00;63763.75;345964;28;137019;-67
2021/07/21 04:08:46;;;;;;;16.90;12.32;;;;;;;-145.12;100.00;63763.75;345879;28;137131;-67
2021/07/21 04:10:01;;;;;;;17.85;12.68;;;;;;;-145.12;100.00;63763.75;345969;28;138212;-67
2021/07/21 04:11:13;;;;;;;16.55;12.30;;;;;;;-145.12;100.00;63763.75;345829;28;137071;-68
2021/07/21 04:12:25;;;;;;;19.60;12.52;;;;;;;-145.12;100.00;63763.75;346090;28;137303;-68
2021/07/21 04:13:45;;;;;;;18.02;12.10;;;;;;;-145.12;100.00;63763.75;345846;28;137105;-67
2021/07/21 04:14:57;;;;;;;18.25;12.43;;;;;;;-145.12;100.00;63763.75;346076;28;137251;-67
2021/07/21 04:16:12;;;;;;;17.63;12.57;;;;;;;-145.12;100.00;63763.75;344602;28;137116;-68
2021/07/21 04:17:24;;;;;;;16.65;12.05;;;;;;;-145.12;100.00;63763.75;344450;28;137990;-68
2021/07/21 04:18:36;;;;;;;17.52;12.32;;;;;;;-145.12;100.00;63763.75;345115;28;160995;-67
2021/07/21 04:19:48;;;;;;;20.25;12.57;;;;;;;-145.12;100.00;63763.75;345918;28;137362;-67
2021/07/21 04:21:00;;;;;;;18.10;12.65;;;;;;;-145.12;100.00;63763.75;345858;28;138170;-67
2021/07/21 04:22:12;;;;;;;16.95;12.52;;;;;;;-145.12;100.00;63763.75;346032;28;138682;-67
2021/07/21 04:23:25;;;;;;;22.08;12.90;;;;;;;-145.12;100.00;63763.75;345874;28;138300;-67
2021/07/21 04:24:38;;;;;;;19.02;12.73;;;;;;;-145.12;100.00;63763.75;346028;28;137202;-68
2021/07/21 04:25:50;;;;;;;16.63;12.27;;;;;;;-145.12;100.00;63763.75;345728;28;138327;-68
2021/07/21 04:27:03;;;;;;;19.27;12.27;;;;;;;-145.12;100.00;63763.75;345947;28;138455;-68
2021/07/21 04:28:15;;;;;;;17.35;12.20;;;;;;;-145.12;100.00;63763.75;345910;28;137130;-68
2021/07/21 04:29:27;;;;;;;17.98;13.13;;;;;;;-145.12;100.00;63763.75;345880;28;136961;-66
2021/07/21 04:30:38;;;;;;;17.77;12.38;;;;;;;-145.12;100.00;63763.75;345907;28;138787;-65
2021/07/21 04:31:52;;;;;;;17.50;12.50;;;;;;;-145.12;100.00;63763.75;345899;28;137136;-68
2021/07/21 04:33:05;;;;;;;19.75;12.90;;;;;;;-145.12;100.00;63763.75;346034;28;136501;-67
2021/07/21 04:34:16;;;;;;;18.25;12.55;;;;;;;-145.12;100.00;63763.75;345925;28;138284;-67
2021/07/21 04:35:29;;;;;;;20.70;13.00;;;;;;;-145.12;100.00;63763.75;345052;28;160242;-67
2021/07/21 04:36:41;;;;;;;15.93;12.15;;;;;;;-145.12;100.00;63763.75;343291;28;138304;-68
2021/07/21 04:37:53;;;;;;;18.95;13.45;;;;;;;-145.12;100.00;63763.75;343101;28;136961;-68
2021/07/21 04:39:05;;;;;;;21.98;13.52;;;;;;;-145.12;100.00;63763.75;343345;28;137431;-67
2021/07/21 04:40:18;;;;;;;17.10;12.57;;;;;;;-145.12;100.00;63763.75;343145;28;137491;-67
2021/07/21 04:41:30;;;;;;;19.75;13.27;;;;;;;-145.12;100.00;63763.75;344210;28;137339;-67
2021/07/21 04:42:43;;;;;;;18.40;13.20;;;;;;;-145.12;100.00;63763.75;342355;28;160970;-68
2021/07/21 04:43:54;;;;;;;17.20;12.48;;;;;;;-145.12;100.00;63763.75;343291;28;137448;-67
2021/07/21 04:45:06;;;;;;;19.42;12.68;;;;;;;-145.12;100.00;63763.75;345799;28;137133;-68
2021/07/21 04:46:18;;;;;;;19.73;12.57;;;;;;;-145.12;100.00;63763.75;345725;28;137122;-67
2021/07/21 04:47:30;;;;;;;19.17;12.63;;;;;;;-145.12;100.00;63763.75;345961;28;138343;-67
2021/07/21 04:48:42;;;;;;;19.25;13.27;;;;;;;-145.12;100.00;63763.75;345923;28;137815;-67
2021/07/21 04:49:54;;;;;;;18.05;12.95;;;;;;;-145.12;100.00;63763.75;345736;28;138335;-67
2021/07/21 04:51:14;;;;;;;17.58;12.38;;;;;;;-145.12;100.00;63763.75;345783;28;137307;-67
2021/07/21 04:52:27;;;;;;;20.80;13.30;;;;;;;-145.12;100.00;63763.75;345491;28;137964;-67
2021/07/21 04:53:40;;;;;;;18.00;12.85;;;;;;;-145.12;100.00;63763.75;345897;28;138299;-68
2021/07/21 04:54:55;;;;;;;18.27;13.00;;;;;;;-145.12;100.00;63763.75;345108;28;161367;-67
2021/07/21 04:56:06;;;;;;;18.70;13.35;;;;;;;-145.12;100.00;63763.75;345965;28;137623;-68
2021/07/21 04:57:18;;;;;;;18.73;13.20;;;;;;;-145.12;100.00;63763.75;344274;28;137162;-68
2021/07/21 04:58:29;;;;;;;19.80;13.05;;;;;;;-145.12;100.00;63763.75;344357;28;138257;-67
2021/07/21 04:59:41;;;;;;;19.63;13.18;;;;;;;-145.12;100.00;63763.75;344667;28;137030;-67
2021/07/21 05:00:53;;;;;;;20.15;13.60;;;;;;;-145.12;100.00;63763.75;344677;28;136415;-68
2021/07/21 05:02:05;;;;;;;19.20;13.60;;;;;;;-145.12;100.00;63763.75;343541;28;159462;-68
2021/07/21 05:03:16;;;;;;;17.35;12.68;;;;;;;-145.12;100.00;63763.75;344658;28;136969;-68
2021/07/21 05:04:29;;;;;;;17.92;13.32;;;;;;;-145.12;100.00;63763.75;344518;28;138359;-68
2021/07/21 05:05:41;;;;;;;20.73;13.60;;;;;;;-145.12;100.00;63763.75;344540;28;138841;-68
2021/07/21 05:06:52;;;;;;;19.90;13.95;;;;;;;-145.12;100.00;63763.75;344386;28;138719;-67
2021/07/21 05:08:03;;;;;;;19.92;13.48;;;;;;;-145.12;100.00;63763.75;344479;28;138133;-68
2021/07/21 05:09:15;;;;;;;20.85;13.90;;;;;;;-145.12;100.00;63763.75;344484;28;136460;-67
2021/07/21 05:10:26;;;;;;;19.67;13.20;;;;;;;-145.12;100.00;63763.75;344436;28;137064;-67
2021/07/21 05:11:37;;;;;;;21.63;14.15;;;;;;;-145.12;100.00;63763.75;343117;28;138018;-67
2021/07/21 05:12:48;;;;;;;21.25;13.75;;;;;;;-145.12;100.00;63763.75;342323;28;161392;-67
2021/07/21 05:14:00;;;;;;;19.65;13.80;;;;;;;-145.12;100.00;63763.75;341821;28;138468;-68
2021/07/21 05:15:12;;;;;;;20.10;13.82;;;;;;;-145.12;100.00;63763.75;342042;28;138104;-68
2021/07/21 05:16:23;;;;;;;20.95;13.93;;;;;;;-145.12;100.00;63763.75;343131;28;137205;-67
2021/07/21 05:17:34;;;;;;;19.85;13.35;;;;;;;-145.12;100.00;63763.75;343165;28;138479;-68
2021/07/21 05:18:46;;;;;;;21.80;14.20;;;;;;;-145.12;100.00;63763.75;343088;28;137158;-68
2021/07/21 05:19:57;;;;;;;20.63;13.57;;;;;;;-145.12;100.00;63763.75;343350;28;136427;-67
2021/07/21 05:21:09;;;;;;;22.50;13.77;;;;;;;-145.12;100.00;63763.75;343193;28;136470;-69
2021/07/21 05:22:20;;;;;;;20.27;13.73;;;;;;;-145.12;100.00;63763.75;343248;28;136978;-67
2021/07/21 05:23:32;;;;;;;18.92;13.82;;;;;;;-145.12;100.00;63763.75;342374;28;159423;-66
2021/07/21 05:24:43;;;;;;;20.80;13.93;;;;;;;-145.12;100.00;63763.75;342362;28;160019;-67
2021/07/21 05:25:54;;;;;;;20.33;14.55;;;;;;;-145.12;100.00;63763.75;343126;28;136535;-68
2021/07/21 05:27:06;;;;;;;21.02;14.00;;;;;;;-145.12;100.00;63763.75;340974;28;160356;-68
2021/07/21 05:28:17;;;;;;;21.35;14.32;;;;;;;-145.12;100.00;63763.75;341499;28;138413;-68
2021/07/21 05:29:28;;;;;;;20.08;13.73;;;;;;;-145.12;100.00;63763.75;342994;28;138456;-69
2021/07/21 05:30:39;;;;;;;20.67;13.90;;;;;;;-145.12;100.00;63763.75;343784;28;160308;-68
2021/07/21 05:31:51;;;;;;;19.30;13.95;;;;;;;-145.12;100.00;63763.75;344310;28;138357;-68
2021/07/21 05:33:03;;;;;;;19.55;14.05;;;;;;;-145.12;100.00;63763.75;341764;28;137734;-68